Time;durP1;ratioP1;P1;durP2;ratioP2;P2;SDS_P1;SDS_P2;PMS_P1;PMS_P2;Temp;Humidity;BMP_temperature;BMP_pressure;BME280_temperature;BME280_humidity;BME280_pressure;Samples;Min_cycle;Max_cycle;Signal;HPM_P1;HPM_P2
2022/06/06 00:01:42;;;;;;;5.87;5.37;;;17.10;99.90;;;;;;5076702;28;20427;-48
2022/06/06 00:04:10;;;;;;;7.37;6.13;;;17.20;99.90;;;;;;5076586;28;20444;-50
2022/06/06 00:06:39;;;;;;;7.40;6.80;;;17.10;99.90;;;;;;5076852;28;20409;-48
2022/06/06 00:09:08;;;;;;;6.60;6.10;;;17.10;99.90;;;;;;5076116;28;20425;-49
2022/06/06 00:11:36;;;;;;;6.07;5.57;;;17.20;99.90;;;;;;5076879;28;20412;-49
2022/06/06 00:14:05;;;;;;;5.90;5.47;;;17.10;99.90;;;;;;5076289;28;20472;-45
2022/06/06 00:16:32;;;;;;;6.10;5.60;;;17.00;99.90;;;;;;5076651;28;20430;-42
2022/06/06 00:19:06;;;;;;;7.93;5.43;;;17.00;99.90;;;;;;5076146;28;20483;-47
2022/06/06 00:21:36;;;;;;;7.63;5.67;;;17.00;99.90;;;;;;5076349;28;20434;-44
2022/06/06 00:24:04;;;;;;;6.00;5.37;;;16.90;99.90;;;;;;5076000;28;20526;-45
2022/06/06 00:26:33;;;;;;;6.37;5.77;;;17.00;99.90;;;;;;5077053;28;20617;-45
2022/06/06 00:29:00;;;;;;;5.20;4.80;;;16.90;99.90;;;;;;5076085;28;20413;-47
2022/06/06 00:37:03;;;;;;;6.77;6.07;;;16.80;99.90;;;;;;5076053;28;20432;-47
2022/06/06 00:39:30;;;;;;;5.90;5.50;;;16.70;99.90;;;;;;5067809;28;20492;-47
2022/06/06 00:41:57;;;;;;;6.47;5.87;;;16.60;99.90;;;;;;5075867;28;20444;-46
2022/06/06 00:44:30;;;;;;;6.80;6.20;;;16.70;99.90;;;;;;5078301;28;20426;-48
2022/06/06 00:47:21;;;;;;;7.90;6.40;;;16.70;99.90;;;;;;5080101;28;20835;-48
2022/06/06 00:49:55;;;;;;;6.30;5.80;;;16.80;99.90;;;;;;5074344;28;20477;-49
2022/06/06 00:52:37;;;;;;;8.73;6.87;;;16.70;99.90;;;;;;5079973;28;20701;-51
2022/06/06 00:55:09;;;;;;;6.70;6.20;;;16.60;99.90;;;;;;5079559;28;20449;-48
2022/06/06 00:57:43;;;;;;;6.97;6.37;;;16.60;99.90;;;;;;5073390;28;20442;-45
2022/06/06 01:00:15;;;;;;;6.47;5.23;;;16.60;99.90;;;;;;5079996;28;20487;-47
2022/06/06 01:02:45;;;;;;;6.00;5.60;;;16.50;99.90;;;;;;5073803;28;20433;-48
2022/06/06 01:05:13;;;;;;;5.47;4.83;;;16.50;99.90;;;;;;5080043;28;20420;-49
2022/06/06 01:07:41;;;;;;;5.90;5.30;;;16.50;99.90;;;;;;5079615;28;20469;-50
2022/06/06 01:10:08;;;;;;;6.17;5.50;;;16.40;99.90;;;;;;5079625;28;20457;-44
2022/06/06 01:12:38;;;;;;;6.13;5.53;;;16.50;99.90;;;;;;5079743;28;20488;-45
2022/06/06 01:15:09;;;;;;;6.10;5.50;;;16.50;99.90;;;;;;5076526;28;20442;-47
2022/06/06 01:17:59;;;;;;;7.10;6.60;;;16.50;99.90;;;;;;5079397;28;20699;-47
2022/06/06 01:20:41;;;;;;;5.97;5.47;;;16.50;99.90;;;;;;5079586;28;20487;-46
2022/06/06 01:23:27;;;;;;;6.20;5.60;;;16.40;99.90;;;;;;5079408;28;20624;-48
2022/06/06 01:26:29;;;;;;;6.20;5.70;;;16.30;99.90;;;;;;5079509;28;20461;-50
2022/06/06 01:29:25;;;;;;;6.20;5.70;;;16.30;99.90;;;;;;5069873;28;20445;-44
2022/06/06 01:32:00;;;;;;;6.23;5.73;;;16.40;99.90;;;;;;5076282;28;20418;-46
2022/06/06 01:34:34;;;;;;;7.10;6.40;;;16.30;99.90;;;;;;5071575;28;20846;-42
2022/06/06 01:37:03;;;;;;;6.70;6.00;;;16.30;99.90;;;;;;5079306;28;21013;-46
2022/06/06 01:39:31;;;;;;;8.43;6.30;;;16.20;99.90;;;;;;5073765;28;20479;-50
2022/06/06 01:42:06;;;;;;;6.47;5.80;;;16.30;99.90;;;;;;5081293;28;20442;-44
2022/06/06 01:44:53;;;;;;;6.73;6.20;;;16.20;99.90;;;;;;5071732;28;20677;-48
2022/06/06 01:47:39;;;;;;;6.80;6.20;;;16.10;99.90;;;;;;5078772;28;20423;-47
2022/06/06 01:50:11;;;;;;;6.23;5.70;;;16.10;99.90;;;;;;5087163;28;20458;-46
2022/06/06 01:53:01;;;;;;;6.20;5.70;;;16.30;99.90;;;;;;5082317;28;20464;-48
2022/06/06 01:55:30;;;;;;;5.63;5.03;;;16.40;99.90;;;;;;5075327;28;20804;-47
2022/06/06 01:58:01;;;;;;;7.13;6.50;;;16.50;99.90;;;;;;5079864;28;20409;-45
2022/06/06 02:00:31;;;;;;;6.37;5.50;;;16.60;99.90;;;;;;5078363;28;20457;-48
2022/06/06 02:02:59;;;;;;;7.70;6.43;;;16.70;99.90;;;;;;5078455;28;20414;-48
2022/06/06 02:05:26;;;;;;;6.23;5.70;;;16.80;99.90;;;;;;5083585;28;20777;-47
2022/06/06 02:07:53;;;;;;;6.00;5.50;;;16.90;99.90;;;;;;5078469;28;20432;-48
2022/06/06 02:10:22;;;;;;;9.80;6.30;;;16.80;99.90;;;;;;5078215;28;20461;-51
2022/06/06 02:12:50;;;;;;;6.30;5.70;;;16.80;99.90;;;;;;5078717;28;21100;-48
2022/06/06 02:15:20;;;;;;;6.00;5.50;;;16.70;99.90;;;;;;5078247;28;20415;-49
2022/06/06 02:17:47;;;;;;;6.23;5.63;;;16.70;99.90;;;;;;5084390;28;20653;-52
2022/06/06 02:20:18;;;;;;;5.80;5.30;;;16.70;99.90;;;;;;5088698;28;20646;-47
2022/06/06 02:22:45;;;;;;;7.67;5.73;;;16.70;99.90;;;;;;5083121;28;21034;-48
2022/06/06 02:25:14;;;;;;;6.63;5.97;;;16.60;99.90;;;;;;5078330;28;20443;-43
2022/06/06 02:27:43;;;;;;;5.97;5.40;;;16.60;99.90;;;;;;5078090;28;20455;-46
2022/06/06 02:30:13;;;;;;;6.47;5.87;;;16.50;99.90;;;;;;5078184;28;20611;-48
2022/06/06 02:32:42;;;;;;;7.40;4.63;;;16.60;99.90;;;;;;5080834;28;20494;-52
2022/06/06 02:35:11;;;;;;;5.87;5.37;;;16.60;99.90;;;;;;5083229;28;20797;-49
2022/06/06 02:37:39;;;;;;;6.67;5.97;;;16.70;99.90;;;;;;5086881;28;20428;-48
2022/06/06 02:40:09;;;;;;;5.20;4.80;;;16.60;99.90;;;;;;5082646;28;20463;-45
2022/06/06 02:42:37;;;;;;;5.30;4.90;;;16.70;99.90;;;;;;5086655;28;20456;-46
2022/06/06 02:45:12;;;;;;;8.07;7.30;;;16.60;99.90;;;;;;5082643;28;20423;-46
2022/06/06 02:47:40;;;;;;;6.33;5.73;;;16.60;99.90;;;;;;5086089;28;20414;-48
2022/06/06 02:50:08;;;;;;;6.13;5.60;;;16.50;99.90;;;;;;5082106;28;20416;-42
2022/06/06 02:52:37;;;;;;;6.20;5.60;;;16.40;99.90;;;;;;5087887;28;20460;-49
2022/06/06 02:55:05;;;;;;;6.77;5.93;;;16.50;99.90;;;;;;5083212;28;20940;-44
2022/06/06 02:57:41;;;;;;;9.30;5.93;;;16.50;99.90;;;;;;5082939;28;20471;-44
2022/06/06 03:00:15;;;;;;;8.57;6.80;;;16.50;99.90;;;;;;5077618;28;20457;-50
2022/06/06 03:02:42;;;;;;;7.33;6.57;;;16.50;99.90;;;;;;5077915;28;20456;-43
2022/06/06 03:05:09;;;;;;;6.97;6.30;;;16.40;99.90;;;;;;5077726;28;20782;-44
2022/06/06 03:08:08;;;;;;;7.60;6.90;;;16.40;99.90;;;;;;5081022;28;20441;-45
2022/06/06 03:10:57;;;;;;;7.90;7.20;;;16.30;99.90;;;;;;5078199;28;20428;-49
2022/06/06 03:13:29;;;;;;;7.03;6.50;;;16.30;99.90;;;;;;5082882;28;20545;-43
2022/06/06 03:22:43;;;;;;;6.43;5.80;;;16.40;99.90;;;;;;5084528;28;20862;-45
2022/06/06 03:25:20;;;;;;;6.83;5.87;;;16.40;99.90;;;;;;5082849;28;20435;-48
2022/06/06 03:28:11;;;;;;;7.80;5.83;;;16.50;99.90;;;;;;5084878;28;20434;-47
2022/06/06 03:31:28;;;;;;;8.80;8.00;;;16.60;99.90;;;;;;5074040;28;20456;-46
2022/06/06 03:34:04;;;;;;;6.17;5.67;;;16.70;99.90;;;;;;5080339;28;20619;-44
2022/06/06 03:36:58;;;;;;;6.97;6.37;;;16.80;99.90;;;;;;5074875;28;20436;-47
2022/06/06 03:40:02;;;;;;;6.73;6.13;;;17.00;99.90;;;;;;5085678;28;20439;-48
2022/06/06 03:42:36;;;;;;;7.37;6.67;;;17.10;99.90;;;;;;5073934;28;20634;-46
2022/06/06 03:45:20;;;;;;;7.97;6.13;;;17.00;99.90;;;;;;5085404;28;20596;-44
2022/06/06 03:48:22;;;;;;;11.17;6.83;;;17.00;99.90;;;;;;5081517;28;20436;-47
2022/06/06 03:51:14;;;;;;;7.50;5.93;;;17.00;99.90;;;;;;5083770;28;20473;-46
2022/06/06 03:54:24;;;;;;;8.63;6.73;;;17.00;99.90;;;;;;5079768;28;21060;-48
2022/06/06 03:57:06;;;;;;;8.17;7.40;;;17.10;99.90;;;;;;5079889;28;20505;-47
2022/06/06 03:59:34;;;;;;;6.93;5.77;;;17.20;99.90;;;;;;5075090;28;20430;-48
2022/06/06 04:02:05;;;;;;;6.63;6.03;;;17.30;99.90;;;;;;5077480;28;20461;-51
2022/06/06 04:04:33;;;;;;;6.70;6.10;;;17.40;99.90;;;;;;5077132;28;20398;-46
2022/06/06 04:07:03;;;;;;;8.00;7.20;;;17.50;99.90;;;;;;5076994;28;20414;-46
2022/06/06 04:09:32;;;;;;;10.47;6.50;;;18.00;99.90;;;;;;5074824;28;20496;-48
2022/06/06 04:12:27;;;;;;;5.90;5.30;;;18.30;99.90;;;;;;5076460;28;20422;-48
2022/06/06 04:15:01;;;;;;;8.57;6.83;;;18.50;99.90;;;;;;5075122;28;20447;-44
2022/06/06 04:18:02;;;;;;;8.27;6.87;;;18.70;99.90;;;;;;5076964;28;20445;-53
2022/06/06 04:20:36;;;;;;;7.03;6.43;;;19.10;99.90;;;;;;5068306;28;20806;-44
2022/06/06 04:23:22;;;;;;;6.97;6.37;;;19.50;99.90;;;;;;5076138;28;20441;-53
2022/06/06 04:25:55;;;;;;;9.30;8.50;;;19.50;99.90;;;;;;5076595;28;20424;-53
2022/06/06 04:28:52;;;;;;;6.90;6.23;;;19.70;99.90;;;;;;5077486;28;20405;-49
2022/06/06 04:31:48;;;;;;;7.67;6.97;;;19.90;99.90;;;;;;5076100;28;20514;-47
2022/06/06 04:34:37;;;;;;;7.77;6.80;;;19.90;99.90;;;;;;5076199;28;20628;-46
2022/06/06 04:37:18;;;;;;;6.77;6.27;;;19.90;99.90;;;;;;5075138;28;20458;-48
2022/06/06 04:39:53;;;;;;;9.63;6.97;;;19.90;99.90;;;;;;5078095;28;20438;-47
2022/06/06 04:42:42;;;;;;;6.97;6.30;;;19.70;99.90;;;;;;5078200;28;20483;-51
2022/06/06 04:45:12;;;;;;;6.73;6.13;;;19.50;99.90;;;;;;5076672;28;20447;-50
2022/06/06 04:47:41;;;;;;;7.10;6.40;;;19.40;99.90;;;;;;5076930;28;20438;-49
2022/06/06 04:50:13;;;;;;;7.13;6.37;;;19.30;99.90;;;;;;5075065;28;20493;-48
2022/06/06 04:52:43;;;;;;;8.03;7.00;;;19.20;99.90;;;;;;5075701;28;20442;-44
2022/06/06 04:55:12;;;;;;;8.60;7.13;;;19.10;99.90;;;;;;5075276;28;20439;-43
2022/06/06 04:57:44;;;;;;;7.43;6.67;;;19.10;99.90;;;;;;5078797;28;20425;-45
2022/06/06 05:00:12;;;;;;;7.07;6.33;;;19.20;99.90;;;;;;5075716;28;20443;-45
2022/06/06 05:02:41;;;;;;;8.37;7.40;;;19.20;99.90;;;;;;5075798;28;20453;-46
2022/06/06 05:05:10;;;;;;;8.07;7.27;;;19.20;99.90;;;;;;5075602;28;20434;-45
2022/06/06 05:07:48;;;;;;;8.57;7.77;;;19.20;99.90;;;;;;5080486;28;20829;-43
2022/06/06 05:10:37;;;;;;;8.67;7.80;;;19.30;99.90;;;;;;5075575;28;20466;-42
2022/06/06 05:13:04;;;;;;;7.93;7.20;;;19.40;99.90;;;;;;5076481;28;20529;-46
2022/06/06 05:15:52;;;;;;;7.53;6.83;;;19.30;99.90;;;;;;5075647;28;20439;-45
2022/06/06 05:18:40;;;;;;;8.50;6.57;;;19.40;99.90;;;;;;5074398;28;20425;-44
2022/06/06 05:21:26;;;;;;;8.23;7.43;;;19.50;99.90;;;;;;5077544;28;20475;-46
2022/06/06 05:24:23;;;;;;;7.83;7.13;;;19.70;99.90;;;;;;5070644;28;20437;-45
2022/06/06 05:27:04;;;;;;;8.70;7.67;;;20.00;99.90;;;;;;5074626;28;20460;-50
2022/06/06 05:30:04;;;;;;;7.63;6.93;;;20.20;99.90;;;;;;5071364;28;20414;-48
2022/06/06 05:32:49;;;;;;;8.80;8.00;;;20.20;99.90;;;;;;5071221;28;20472;-44
2022/06/06 05:35:34;;;;;;;7.53;6.70;;;20.30;99.90;;;;;;5078527;28;20855;-46
2022/06/06 05:38:29;;;;;;;7.70;6.97;;;20.40;99.90;;;;;;5078479;28;20407;-45
2022/06/06 05:41:31;;;;;;;7.10;6.50;;;20.40;99.90;;;;;;5073620;28;20552;-45
2022/06/06 05:44:03;;;;;;;10.07;7.17;;;20.50;99.90;;;;;;5058554;28;20477;-49
2022/06/06 05:46:38;;;;;;;7.80;7.20;;;20.80;99.90;;;;;;5071800;28;20553;-49
2022/06/06 05:49:42;;;;;;;7.27;6.50;;;21.10;99.90;;;;;;5075544;28;20500;-46
2022/06/06 05:52:27;;;;;;;7.00;6.40;;;21.30;99.90;;;;;;5076374;28;20480;-47
2022/06/06 05:55:06;;;;;;;7.40;6.70;;;22.00;99.90;;;;;;5078465;28;20794;-46
2022/06/06 05:57:51;;;;;;;7.10;6.50;;;22.50;99.90;;;;;;5081770;28;20414;-46
2022/06/06 06:00:48;;;;;;;6.80;6.30;;;23.40;99.90;;;;;;5078311;28;20832;-47
2022/06/06 06:03:41;;;;;;;6.10;5.60;;;23.70;99.90;;;;;;5080338;28;20888;-46
2022/06/06 06:06:27;;;;;;;7.50;6.20;;;23.90;99.90;;;;;;5085328;28;20457;-48
2022/06/06 06:09:16;;;;;;;6.73;6.13;;;24.30;99.90;;;;;;5082148;28;20625;-45
2022/06/06 06:11:55;;;;;;;6.20;5.70;;;24.70;99.90;;;;;;5072636;28;20432;-51
2022/06/06 06:14:47;;;;;;;8.33;6.73;;;24.90;99.90;;;;;;5088058;28;20446;-43
2022/06/06 06:17:19;;;;;;;7.20;6.20;;;25.00;99.90;;;;;;5088010;28;20451;-47
2022/06/06 06:20:01;;;;;;;7.60;6.90;;;24.80;99.90;;;;;;5082859;28;20444;-51
2022/06/06 06:22:40;;;;;;;5.97;5.10;;;25.30;99.90;;;;;;5093129;28;20551;-46
2022/06/06 06:25:09;;;;;;;7.17;6.30;;;25.40;99.90;;;;;;5083329;28;20718;-46
2022/06/06 06:27:37;;;;;;;6.77;6.17;;;26.10;99.90;;;;;;5084604;28;20445;-49
2022/06/06 06:30:06;;;;;;;12.67;5.93;;;26.50;99.90;;;;;;5081378;28;21022;-47
2022/06/06 06:32:48;;;;;;;7.60;6.90;;;26.90;99.90;;;;;;5083409;28;20464;-47
2022/06/06 06:35:24;;;;;;;8.30;6.30;;;27.20;99.90;;;;;;5082107;28;20443;-46
2022/06/06 06:38:10;;;;;;;5.80;5.40;;;27.80;99.90;;;;;;5082113;28;20448;-46
2022/06/06 06:40:40;;;;;;;7.60;6.80;;;28.20;99.90;;;;;;5071189;28;20445;-45
2022/06/06 06:43:22;;;;;;;6.93;6.27;;;28.20;99.90;;;;;;5081492;28;20527;-48
2022/06/06 06:45:57;;;;;;;9.23;8.33;;;28.10;99.90;;;;;;5073135;28;20439;-47
2022/06/06 06:48:39;;;;;;;7.60;5.87;;;27.70;99.90;;;;;;5081282;28;20464;-49
2022/06/06 06:51:21;;;;;;;6.13;5.63;;;27.90;99.90;;;;;;5088507;28;20762;-48
2022/06/06 06:54:00;;;;;;;7.73;6.17;;;28.80;99.90;;;;;;5082857;28;20762;-51
2022/06/06 06:57:03;;;;;;;6.23;5.63;;;29.30;99.90;;;;;;5076746;28;20514;-46
2022/06/06 06:59:43;;;;;;;12.93;6.00;;;30.00;99.90;;;;;;5085169;28;20439;-48
2022/06/06 07:08:41;;;;;;;6.80;5.73;;;30.20;99.90;;;;;;5081000;28;20440;-49
2022/06/06 07:11:34;;;;;;;9.63;5.90;;;30.40;99.90;;;;;;5083895;28;20662;-46
2022/06/06 07:14:28;;;;;;;7.70;6.23;;;30.80;99.90;;;;;;5079804;28;20546;-49
2022/06/06 07:16:58;;;;;;;5.93;5.43;;;31.00;99.90;;;;;;5079736;28;20494;-50
2022/06/06 07:19:52;;;;;;;7.37;5.20;;;31.00;99.60;;;;;;5080662;28;20446;-51
2022/06/06 07:22:20;;;;;;;5.30;4.80;;;30.80;99.10;;;;;;5079511;28;20547;-50
2022/06/06 07:24:56;;;;;;;5.20;4.83;;;29.90;99.90;;;;;;5080729;28;20450;-48
2022/06/06 07:27:23;;;;;;;5.20;4.63;;;29.20;99.90;;;;;;5084279;28;20447;-52
2022/06/06 07:29:50;;;;;;;5.00;4.60;;;28.60;99.90;;;;;;5078857;28;20448;-46
2022/06/06 07:32:49;;;;;;;6.13;5.53;;;29.20;99.90;;;;;;5084070;28;20473;-51
2022/06/06 07:35:42;;;;;;;11.83;5.87;;;29.20;99.90;;;;;;5086814;28;20442;-49
2022/06/06 07:38:21;;;;;;;5.30;4.90;;;28.70;99.90;;;;;;5079688;28;20443;-52
2022/06/06 07:41:17;;;;;;;5.30;4.90;;;28.30;99.90;;;;;;5082984;28;20435;-52
2022/06/06 07:43:54;;;;;;;5.90;5.40;;;28.00;99.90;;;;;;5082344;28;20564;-45
2022/06/06 07:46:24;;;;;;;6.10;5.50;;;27.70;99.90;;;;;;5077627;28;20510;-49
2022/06/06 07:49:06;;;;;;;5.37;4.97;;;27.30;99.90;;;;;;5083617;28;20444;-46
2022/06/06 07:51:40;;;;;;;6.80;6.30;;;26.80;99.90;;;;;;5077176;28;20464;-52
2022/06/06 07:54:34;;;;;;;6.00;5.50;;;26.30;99.90;;;;;;5082423;28;20916;-46
2022/06/06 07:57:31;;;;;;;5.60;5.13;;;25.60;99.90;;;;;;5080153;28;20442;-45
2022/06/06 08:00:26;;;;;;;5.70;5.20;;;25.00;99.90;;;;;;5079836;28;20442;-48
2022/06/06 08:03:08;;;;;;;5.87;5.37;;;24.90;99.90;;;;;;5078840;28;20830;-52
2022/06/06 08:06:00;;;;;;;8.47;6.67;;;24.80;99.90;;;;;;5075812;28;20424;-48
2022/06/06 08:08:30;;;;;;;12.73;6.20;;;24.80;99.90;;;;;;5080458;28;20428;-45
2022/06/06 08:11:10;;;;;;;8.23;5.90;;;24.80;99.90;;;;;;5081658;28;20761;-46
2022/06/06 08:13:44;;;;;;;6.77;6.27;;;24.90;99.90;;;;;;5072532;28;21003;-46
2022/06/06 08:16:38;;;;;;;8.00;6.40;;;25.40;99.90;;;;;;5082519;28;20452;-48
2022/06/06 08:19:08;;;;;;;7.10;6.40;;;25.80;99.90;;;;;;5081873;28;20435;-48
2022/06/06 08:21:47;;;;;;;7.80;5.90;;;25.60;99.90;;;;;;5084282;28;20479;-48
2022/06/06 08:24:43;;;;;;;7.10;5.57;;;25.20;99.90;;;;;;5079459;28;20490;-47
2022/06/06 08:27:20;;;;;;;7.80;6.80;;;25.30;99.90;;;;;;5081257;28;20824;-45
2022/06/06 08:29:48;;;;;;;6.00;5.50;;;25.10;99.90;;;;;;5077670;28;20857;-46
2022/06/06 08:32:19;;;;;;;6.47;5.90;;;25.10;99.90;;;;;;5082923;28;20466;-48
2022/06/06 08:34:48;;;;;;;8.23;7.33;;;25.10;99.90;;;;;;5083855;28;20435;-49
2022/06/06 08:37:37;;;;;;;6.10;5.60;;;25.20;99.90;;;;;;5082079;28;20519;-49
2022/06/06 08:40:32;;;;;;;6.00;5.50;;;25.20;99.90;;;;;;5084186;28;20440;-49
2022/06/06 08:43:00;;;;;;;6.57;5.67;;;25.00;99.90;;;;;;5079203;28;20540;-49
2022/06/06 08:45:51;;;;;;;8.53;6.53;;;25.20;99.90;;;;;;5082370;28;20775;-49
2022/06/06 08:48:41;;;;;;;7.43;6.80;;;25.50;99.90;;;;;;5079219;28;20448;-47
2022/06/06 08:51:47;;;;;;;6.00;5.60;;;26.10;99.90;;;;;;5080731;28;20519;-46
2022/06/06 08:54:36;;;;;;;7.63;6.87;;;26.70;99.90;;;;;;5078111;28;20477;-47
2022/06/06 08:57:13;;;;;;;5.90;5.50;;;27.00;99.90;;;;;;5079408;28;20443;-44
2022/06/06 09:00:05;;;;;;;6.37;5.77;;;27.20;99.90;;;;;;5086290;28;20457;-45
2022/06/06 09:02:51;;;;;;;6.63;6.03;;;27.00;99.90;;;;;;5073629;28;20484;-43
2022/06/06 09:05:54;;;;;;;15.50;6.60;;;26.60;99.90;;;;;;5085977;28;20514;-47
2022/06/06 09:08:30;;;;;;;6.03;4.90;;;26.10;99.90;;;;;;5081197;28;20428;-47
2022/06/06 09:11:31;;;;;;;6.57;5.97;;;25.50;99.90;;;;;;5085256;28;20854;-51
2022/06/06 09:14:37;;;;;;;5.50;5.10;;;25.10;99.90;;;;;;5077237;28;20456;-43
2022/06/06 09:17:22;;;;;;;5.20;4.80;;;24.80;99.90;;;;;;5082961;28;20417;-48
2022/06/06 09:20:27;;;;;;;6.90;6.30;;;24.50;99.90;;;;;;5083788;28;20438;-47
2022/06/06 09:23:25;;;;;;;8.53;5.37;;;24.30;99.90;;;;;;5082539;28;20803;-46
2022/06/06 09:26:00;;;;;;;6.00;5.40;;;24.10;99.90;;;;;;5078997;28;20410;-48
2022/06/06 09:28:46;;;;;;;5.60;5.20;;;23.90;99.90;;;;;;5085080;28;20510;-44
2022/06/06 09:31:34;;;;;;;5.60;5.10;;;23.70;99.90;;;;;;5080398;28;20681;-47
2022/06/06 09:34:33;;;;;;;5.80;5.40;;;23.60;99.90;;;;;;5083461;28;20425;-48
2022/06/06 09:37:06;;;;;;;5.00;4.60;;;23.30;99.90;;;;;;5083329;28;20446;-44
2022/06/06 09:39:57;;;;;;;6.33;5.83;;;23.10;99.90;;;;;;5077272;28;20638;-48
2022/06/06 09:42:30;;;;;;;5.43;5.03;;;23.00;99.90;;;;;;5081193;28;20551;-49
2022/06/06 09:45:19;;;;;;;5.53;5.13;;;22.80;99.90;;;;;;5084445;28;20479;-49
2022/06/06 09:47:49;;;;;;;5.73;5.10;;;23.10;99.90;;;;;;5074861;28;20444;-48
2022/06/06 09:50:50;;;;;;;5.40;4.90;;;23.30;99.90;;;;;;5085241;28;20411;-47
2022/06/06 09:53:45;;;;;;;7.53;5.83;;;23.60;99.90;;;;;;5080966;28;20444;-50
2022/06/06 10:00:02;;;;;;;7.10;5.07;;;24.00;99.90;;;;;;5086362;28;20424;-51
2022/06/06 10:03:00;;;;;;;5.33;4.93;;;24.60;99.90;;;;;;5076460;28;20557;-47
2022/06/06 10:06:10;;;;;;;5.10;4.40;;;25.50;99.90;;;;;;5095001;28;20424;-45
2022/06/06 10:09:01;;;;;;;4.83;4.43;;;25.90;99.90;;;;;;5071151;28;20510;-51
2022/06/06 10:11:47;;;;;;;6.10;4.33;;;26.30;99.90;;;;;;5075219;28;20399;-45
2022/06/06 10:14:34;;;;;;;4.77;4.37;;;27.00;99.90;;;;;;5079265;28;20430;-44
2022/06/06 10:17:10;;;;;;;4.43;4.03;;;27.00;99.90;;;;;;5082229;28;20438;-47
2022/06/06 10:19:55;;;;;;;4.37;3.97;;;27.50;99.90;;;;;;5078497;28;20692;-47
2022/06/06 10:23:09;;;;;;;4.60;4.30;;;27.10;99.90;;;;;;5086794;28;20473;-44
2022/06/06 10:26:05;;;;;;;4.37;4.07;;;26.60;99.90;;;;;;5074739;28;20557;-45
2022/06/06 10:28:43;;;;;;;4.07;3.60;;;26.40;99.90;;;;;;5083597;28;20460;-45
2022/06/06 10:31:38;;;;;;;4.80;3.90;;;26.90;99.90;;;;;;5080355;28;20440;-48
2022/06/06 10:34:22;;;;;;;3.63;3.03;;;27.10;99.90;;;;;;5081379;28;20641;-46
2022/06/06 10:37:16;;;;;;;4.30;3.90;;;27.00;99.90;;;;;;5082348;28;20510;-51
2022/06/06 10:39:58;;;;;;;4.07;3.77;;;27.00;99.90;;;;;;5077634;28;20834;-52
2022/06/06 10:42:51;;;;;;;3.73;3.43;;;27.10;99.90;;;;;;5080752;28;20480;-47
2022/06/06 10:45:45;;;;;;;4.00;3.70;;;26.70;99.90;;;;;;5083963;28;20539;-49
2022/06/06 10:48:31;;;;;;;3.03;2.73;;;26.10;99.90;;;;;;5079590;28;20635;-44
2022/06/06 10:51:38;;;;;;;3.97;2.70;;;26.00;99.90;;;;;;5079850;28;20439;-47
2022/06/06 10:54:13;;;;;;;5.50;3.50;;;25.70;99.90;;;;;;5082456;28;20526;-48
2022/06/06 10:57:01;;;;;;;2.80;2.60;;;25.50;99.90;;;;;;5081800;28;20450;-48
2022/06/06 10:59:54;;;;;;;1.50;1.40;;;25.70;99.90;;;;;;5084414;28;20427;-44
2022/06/06 11:02:25;;;;;;;2.57;1.73;;;26.20;99.90;;;;;;5078712;28;20487;-47
2022/06/06 11:05:30;;;;;;;3.80;1.97;;;26.30;99.90;;;;;;5086840;28;20445;-46
2022/06/06 11:08:19;;;;;;;1.80;1.70;;;26.20;99.90;;;;;;5077740;28;20529;-46
2022/06/06 11:11:24;;;;;;;6.50;2.43;;;26.30;99.90;;;;;;5076310;28;20550;-48
2022/06/06 11:14:03;;;;;;;1.63;1.50;;;26.50;99.90;;;;;;5079008;28;20523;-46
2022/06/06 11:16:42;;;;;;;1.63;1.30;;;26.90;99.90;;;;;;5082816;28;20437;-50
2022/06/06 11:19:34;;;;;;;2.17;1.10;;;27.10;99.90;;;;;;5080466;28;20505;-49
2022/06/06 11:22:23;;;;;;;2.00;1.80;;;27.00;99.90;;;;;;5079034;28;20544;-47
2022/06/06 11:25:10;;;;;;;3.33;1.60;;;26.70;99.90;;;;;;5075917;28;20471;-50
2022/06/06 11:28:02;;;;;;;2.10;1.87;;;26.20;99.90;;;;;;5075183;28;20500;-50
2022/06/06 11:31:00;;;;;;;1.80;1.70;;;25.70;99.90;;;;;;5079721;28;20436;-52
2022/06/06 11:34:06;;;;;;;1.40;1.30;;;25.20;99.90;;;;;;5081574;28;20463;-50
2022/06/06 11:36:52;;;;;;;1.30;1.20;;;25.50;99.90;;;;;;5073477;28;20507;-53
2022/06/06 11:39:23;;;;;;;2.17;1.87;;;25.30;99.90;;;;;;5083768;28;20498;-52
2022/06/06 11:41:57;;;;;;;2.43;1.93;;;25.10;99.90;;;;;;5078886;28;20486;-52
2022/06/06 11:44:49;;;;;;;1.63;1.53;;;25.10;99.90;;;;;;5082426;28;20510;-46
2022/06/06 11:47:29;;;;;;;0.97;0.97;;;25.00;99.90;;;;;;5079132;28;20445;-46
2022/06/06 11:50:34;;;;;;;2.20;2.00;;;24.60;99.90;;;;;;5080711;28;20438;-47
2022/06/06 11:53:19;;;;;;;1.60;1.47;;;24.50;99.90;;;;;;5073161;28;20463;-50
2022/06/06 11:56:18;;;;;;;1.60;1.50;;;24.50;99.90;;;;;;5083705;28;20439;-48
2022/06/06 11:59:23;;;;;;;1.60;1.20;;;24.40;99.90;;;;;;5081471;28;20424;-48
2022/06/06 12:02:18;;;;;;;1.63;1.30;;;24.40;99.90;;;;;;5071792;28;20493;-49
2022/06/06 12:05:19;;;;;;;1.80;1.37;;;24.20;99.90;;;;;;5084024;28;20405;-53
2022/06/06 12:08:15;;;;;;;3.20;1.40;;;23.80;99.90;;;;;;5073729;28;20468;-47
2022/06/06 12:11:20;;;;;;;2.90;1.53;;;23.50;99.90;;;;;;5075553;28;20550;-52
2022/06/06 12:14:14;;;;;;;2.43;1.83;;;23.20;99.90;;;;;;5072733;28;20469;-50
2022/06/06 12:17:08;;;;;;;2.07;1.87;;;23.30;99.90;;;;;;5084805;28;20418;-46
2022/06/06 12:20:19;;;;;;;2.47;2.27;;;23.40;99.90;;;;;;5075190;28;20442;-51
2022/06/06 12:23:17;;;;;;;2.40;2.00;;;23.60;99.90;;;;;;5067382;28;20487;-46
2022/06/06 12:25:46;;;;;;;1.80;1.33;;;23.80;99.90;;;;;;5079585;28;20403;-45
2022/06/06 12:28:44;;;;;;;2.93;2.10;;;23.80;99.90;;;;;;5081982;28;20414;-45
2022/06/06 12:31:49;;;;;;;3.33;1.90;;;23.50;99.90;;;;;;5078169;28;20447;-50
2022/06/06 12:34:38;;;;;;;2.53;1.93;;;23.50;99.90;;;;;;5081562;28;20627;-46
2022/06/06 12:37:36;;;;;;;3.43;2.07;;;23.60;99.90;;;;;;5081382;28;20500;-48
2022/06/06 12:40:22;;;;;;;1.93;1.73;;;23.80;99.90;;;;;;5085336;28;20479;-46
2022/06/06 12:43:00;;;;;;;3.50;3.20;;;24.00;99.90;;;;;;5082624;28;20492;-52
2022/06/06 12:45:41;;;;;;;2.03;1.93;;;24.70;99.90;;;;;;5084038;28;20480;-48
2022/06/06 12:48:11;;;;;;;2.83;2.60;;;24.80;99.90;;;;;;5081385;28;20734;-47
2022/06/06 12:51:08;;;;;;;2.30;2.20;;;24.80;99.90;;;;;;5089172;28;20435;-46
2022/06/06 12:53:46;;;;;;;3.10;2.90;;;24.90;99.90;;;;;;5076338;28;20527;-48
2022/06/06 12:56:37;;;;;;;2.20;2.07;;;25.00;99.90;;;;;;5084392;28;20431;-50
2022/06/06 12:59:23;;;;;;;1.90;1.80;;;25.00;99.90;;;;;;5084369;28;20500;-49
2022/06/06 13:01:58;;;;;;;3.17;2.00;;;24.80;99.90;;;;;;5085911;28;20414;-48
2022/06/06 13:04:42;;;;;;;2.03;1.93;;;24.70;99.90;;;;;;5085039;28;20510;-48
2022/06/06 13:07:30;;;;;;;2.30;2.20;;;24.60;99.90;;;;;;5081603;28;20435;-44
2022/06/06 13:10:16;;;;;;;2.63;2.43;;;24.70;99.90;;;;;;5090111;28;20504;-46
2022/06/06 13:13:05;;;;;;;2.27;2.10;;;24.70;99.90;;;;;;5076116;28;20467;-46
2022/06/06 13:15:41;;;;;;;2.47;2.27;;;24.60;99.90;;;;;;5081329;28;20493;-46
2022/06/06 13:18:47;;;;;;;2.37;2.10;;;24.80;99.90;;;;;;5091950;28;20442;-47
2022/06/06 13:21:34;;;;;;;2.90;2.70;;;25.00;99.90;;;;;;5091778;28;20714;-48
2022/06/06 13:24:09;;;;;;;3.07;2.83;;;24.80;99.90;;;;;;5071594;28;20489;-47
2022/06/06 13:26:50;;;;;;;3.80;3.50;;;24.90;99.90;;;;;;5082006;28;20537;-46
2022/06/06 13:29:31;;;;;;;4.20;3.90;;;24.80;99.90;;;;;;5080750;28;20418;-47
2022/06/06 13:32:13;;;;;;;2.27;2.07;;;24.80;99.90;;;;;;5085838;28;20413;-51
2022/06/06 13:35:06;;;;;;;3.20;3.00;;;24.60;99.90;;;;;;5080200;28;20468;-46
2022/06/06 13:38:04;;;;;;;3.83;3.43;;;24.50;99.90;;;;;;5072623;28;20503;-47
2022/06/06 13:40:43;;;;;;;4.00;3.70;;;24.40;99.90;;;;;;5086650;28;20447;-45
2022/06/06 13:43:43;;;;;;;3.47;3.13;;;24.10;99.90;;;;;;5081685;28;20524;-48
2022/06/06 13:46:32;;;;;;;3.30;3.10;;;24.50;99.90;;;;;;5076587;28;20435;-52
2022/06/06 13:49:20;;;;;;;4.50;3.23;;;24.60;99.90;;;;;;5085690;28;20486;-49
2022/06/06 13:52:04;;;;;;;3.27;3.03;;;24.70;99.90;;;;;;5080498;28;20507;-47
2022/06/06 13:54:33;;;;;;;3.97;3.40;;;24.60;99.90;;;;;;5075309;28;20454;-46
2022/06/06 13:57:13;;;;;;;3.60;3.30;;;24.70;99.90;;;;;;5082707;28;21029;-46
2022/06/06 14:00:10;;;;;;;4.40;4.00;;;25.10;99.90;;;;;;5091031;28;20441;-50
2022/06/06 14:03:15;;;;;;;3.23;2.97;;;25.40;99.90;;;;;;5079937;28;20479;-50
2022/06/06 14:05:50;;;;;;;4.20;3.83;;;25.60;99.90;;;;;;5087266;28;20491;-48
2022/06/06 14:08:22;;;;;;;5.47;3.57;;;25.70;99.90;;;;;;5078064;28;20481;-45
2022/06/06 14:10:56;;;;;;;3.83;3.40;;;25.70;99.90;;;;;;5084483;28;20422;-46
2022/06/06 14:13:41;;;;;;;4.53;3.30;;;25.70;99.90;;;;;;5089185;28;20455;-48
2022/06/06 14:16:30;;;;;;;4.20;3.30;;;25.90;99.90;;;;;;5090337;28;20611;-47
2022/06/06 14:19:19;;;;;;;4.97;3.60;;;26.00;99.90;;;;;;5091654;28;20435;-45
2022/06/06 14:21:53;;;;;;;6.43;3.80;;;26.00;99.90;;;;;;5089470;28;20438;-52
2022/06/06 14:24:25;;;;;;;4.90;4.40;;;26.00;99.90;;;;;;5090800;28;20672;-47
2022/06/06 14:26:53;;;;;;;3.80;3.50;;;25.90;99.90;;;;;;5087767;28;20948;-49